sensor_id;sensor_type;location;lat;lon;timestamp;pressure;altitude;pressure_sealevel;temperature;humidity
53262;BME280;39658;51.090;-1.786;2023-12-20T00:01:54;102341.13;;;3.42;100.00
53262;BME280;39658;51.090;-1.786;2023-12-20T00:04:21;102344.63;;;3.37;100.00
53262;BME280;39658;51.090;-1.786;2023-12-20T00:06:48;102340.31;;;3.36;100.00
53262;BME280;39658;51.090;-1.786;2023-12-20T00:09:14;102348.19;;;3.31;100.00
53262;BME280;39658;51.090;-1.786;2023-12-20T00:11:43;102367.25;;;3.35;100.00
53262;BME280;39658;51.090;-1.786;2023-12-20T00:14:10;102362.13;;;3.27;100.00
53262;BME280;39658;51.090;-1.786;2023-12-20T00:16:36;102369.13;;;3.20;100.00
53262;BME280;39658;51.090;-1.786;2023-12-20T00:19:03;102371.69;;;3.28;100.00
53262;BME280;39658;51.090;-1.786;2023-12-20T00:21:30;102375.19;;;3.22;100.00
53262;BME280;39658;51.090;-1.786;2023-12-20T00:23:57;102376.13;;;3.14;100.00
53262;BME280;39658;51.090;-1.786;2023-12-20T00:26:23;102373.56;;;3.08;100.00
53262;BME280;39658;51.090;-1.786;2023-12-20T00:28:51;102385.84;;;2.95;100.00
53262;BME280;39658;51.090;-1.786;2023-12-20T00:31:18;102379.78;;;2.93;100.00
53262;BME280;39658;51.090;-1.786;2023-12-20T00:33:45;102379.88;;;2.80;100.00
53262;BME280;39658;51.090;-1.786;2023-12-20T00:36:12;102395.50;;;2.77;100.00
53262;BME280;39658;51.090;-1.786;2023-12-20T00:38:39;102411.03;;;2.94;100.00
53262;BME280;39658;51.090;-1.786;2023-12-20T00:41:06;102429.28;;;2.93;100.00
53262;BME280;39658;51.090;-1.786;2023-12-20T00:43:32;102446.69;;;2.91;100.00
53262;BME280;39658;51.090;-1.786;2023-12-20T00:45:59;102450.94;;;2.98;100.00
53262;BME280;39658;51.090;-1.786;2023-12-20T00:48:26;102464.91;;;2.92;100.00
53262;BME280;39658;51.090;-1.786;2023-12-20T00:50:55;102464.97;;;2.81;100.00
53262;BME280;39658;51.090;-1.786;2023-12-20T00:53:22;102478.00;;;2.81;100.00
53262;BME280;39658;51.090;-1.786;2023-12-20T00:55:49;102480.66;;;2.67;100.00
53262;BME280;39658;51.090;-1.786;2023-12-20T00:58:15;102471.16;;;2.56;100.00
53262;BME280;39658;51.090;-1.786;2023-12-20T01:00:42;102475.56;;;2.44;100.00
53262;BME280;39658;51.090;-1.786;2023-12-20T01:03:10;102482.50;;;2.36;100.00
53262;BME280;39658;51.090;-1.786;2023-12-20T01:05:37;102479.97;;;2.19;100.00
53262;BME280;39658;51.090;-1.786;2023-12-20T01:08:05;102493.03;;;2.07;100.00
53262;BME280;39658;51.090;-1.786;2023-12-20T01:10:31;102497.31;;;2.19;100.00
53262;BME280;39658;51.090;-1.786;2023-12-20T01:12:58;102496.44;;;2.21;100.00
53262;BME280;39658;51.090;-1.786;2023-12-20T01:15:24;102505.91;;;2.47;100.00
53262;BME280;39658;51.090;-1.786;2023-12-20T01:17:51;102530.25;;;2.37;100.00
53262;BME280;39658;51.090;-1.786;2023-12-20T01:20:19;102536.22;;;2.62;100.00
53262;BME280;39658;51.090;-1.786;2023-12-20T01:22:46;102546.59;;;2.80;100.00
53262;BME280;39658;51.090;-1.786;2023-12-20T01:25:13;102555.16;;;3.04;100.00
53262;BME280;39658;51.090;-1.786;2023-12-20T01:27:39;102555.16;;;3.04;100.00
53262;BME280;39658;51.090;-1.786;2023-12-20T01:30:07;102560.31;;;3.12;100.00
53262;BME280;39658;51.090;-1.786;2023-12-20T01:32:34;102552.38;;;3.36;100.00
53262;BME280;39658;51.090;-1.786;2023-12-20T01:35:01;102559.09;;;3.71;100.00
53262;BME280;39658;51.090;-1.786;2023-12-20T01:37:29;102545.88;;;3.88;100.00
53262;BME280;39658;51.090;-1.786;2023-12-20T01:39:55;102545.75;;;4.02;100.00
53262;BME280;39658;51.090;-1.786;2023-12-20T01:42:22;102504.78;;;4.10;100.00
53262;BME280;39658;51.090;-1.786;2023-12-20T01:44:49;102470.88;;;4.10;100.00
53262;BME280;39658;51.090;-1.786;2023-12-20T01:47:16;102433.41;;;4.11;100.00
53262;BME280;39658;51.090;-1.786;2023-12-20T01:49:43;102392.47;;;4.18;100.00
53262;BME280;39658;51.090;-1.786;2023-12-20T01:52:10;102329.75;;;4.23;100.00
53262;BME280;39658;51.090;-1.786;2023-12-20T01:54:38;102272.16;;;4.32;100.00
53262;BME280;39658;51.090;-1.786;2023-12-20T01:57:07;102214.66;;;4.35;100.00
53262;BME280;39658;51.090;-1.786;2023-12-20T01:59:34;102151.75;;;4.51;100.00
53262;BME280;39658;51.090;-1.786;2023-12-20T02:02:03;102095.25;;;4.45;100.00
53262;BME280;39658;51.090;-1.786;2023-12-20T02:04:30;102050.75;;;4.49;100.00
53262;BME280;39658;51.090;-1.786;2023-12-20T02:06:57;101997.44;;;4.60;100.00
53262;BME280;39658;51.090;-1.786;2023-12-20T02:09:25;101954.72;;;4.62;100.00
53262;BME280;39658;51.090;-1.786;2023-12-20T02:11:54;101904.06;;;4.70;100.00
53262;BME280;39658;51.090;-1.786;2023-12-20T02:14:21;101861.50;;;4.64;100.00
53262;BME280;39658;51.090;-1.786;2023-12-20T02:16:48;101823.97;;;4.68;100.00
53262;BME280;39658;51.090;-1.786;2023-12-20T02:19:15;101796.94;;;4.70;100.00
53262;BME280;39658;51.090;-1.786;2023-12-20T02:21:44;101780.44;;;4.67;100.00
53262;BME280;39658;51.090;-1.786;2023-12-20T02:24:11;101769.00;;;4.73;100.00
53262;BME280;39658;51.090;-1.786;2023-12-20T02:26:38;101746.47;;;4.67;100.00
53262;BME280;39658;51.090;-1.786;2023-12-20T02:29:05;101733.31;;;4.72;100.00
53262;BME280;39658;51.090;-1.786;2023-12-20T02:31:31;101724.53;;;4.75;100.00
53262;BME280;39658;51.090;-1.786;2023-12-20T02:33:58;101716.50;;;4.82;100.00
53262;BME280;39658;51.090;-1.786;2023-12-20T02:36:25;101699.69;;;4.93;100.00
53262;BME280;39658;51.090;-1.786;2023-12-20T02:38:53;101696.06;;;4.97;100.00
53262;BME280;39658;51.090;-1.786;2023-12-20T02:41:19;101690.16;;;4.90;100.00
53262;BME280;39658;51.090;-1.786;2023-12-20T02:43:47;101684.78;;;4.96;100.00
53262;BME280;39658;51.090;-1.786;2023-12-20T02:46:15;101677.94;;;4.91;100.00
53262;BME280;39658;51.090;-1.786;2023-12-20T02:48:42;101669.13;;;4.95;100.00
53262;BME280;39658;51.090;-1.786;2023-12-20T02:51:09;101662.09;;;4.97;100.00
53262;BME280;39658;51.090;-1.786;2023-12-20T02:53:35;101649.91;;;4.97;100.00
53262;BME280;39658;51.090;-1.786;2023-12-20T02:56:04;101642.84;;;5.01;100.00
53262;BME280;39658;51.090;-1.786;2023-12-20T02:58:31;101622.56;;;5.09;100.00
53262;BME280;39658;51.090;-1.786;2023-12-20T03:00:58;101611.25;;;5.09;100.00
53262;BME280;39658;51.090;-1.786;2023-12-20T03:03:25;101611.00;;;5.18;100.00
53262;BME280;39658;51.090;-1.786;2023-12-20T03:05:51;101604.81;;;5.20;100.00
53262;BME280;39658;51.090;-1.786;2023-12-20T03:08:18;101602.16;;;5.22;100.00
53262;BME280;39658;51.090;-1.786;2023-12-20T03:10:45;101596.97;;;5.20;100.00
53262;BME280;39658;51.090;-1.786;2023-12-20T03:13:13;101596.88;;;5.24;100.00
53262;BME280;39658;51.090;-1.786;2023-12-20T03:15:40;101586.38;;;5.25;100.00
53262;BME280;39658;51.090;-1.786;2023-12-20T03:18:06;101596.53;;;5.34;100.00
53262;BME280;39658;51.090;-1.786;2023-12-20T03:20:33;101603.53;;;5.34;100.00
53262;BME280;39658;51.090;-1.786;2023-12-20T03:23:00;101601.72;;;5.36;100.00
53262;BME280;39658;51.090;-1.786;2023-12-20T03:25:27;101598.91;;;5.42;100.00
53262;BME280;39658;51.090;-1.786;2023-12-20T03:27:54;101604.06;;;5.45;100.00
53262;BME280;39658;51.090;-1.786;2023-12-20T03:30:22;101605.03;;;5.43;100.00
53262;BME280;39658;51.090;-1.786;2023-12-20T03:32:48;101609.56;;;5.36;100.00
53262;BME280;39658;51.090;-1.786;2023-12-20T03:35:15;101620.78;;;5.41;100.00
53262;BME280;39658;51.090;-1.786;2023-12-20T03:37:42;101609.19;;;5.48;100.00
53262;BME280;39658;51.090;-1.786;2023-12-20T03:40:10;101613.59;;;5.48;100.00
53262;BME280;39658;51.090;-1.786;2023-12-20T03:42:36;101610.69;;;5.57;100.00
53262;BME280;39658;51.090;-1.786;2023-12-20T03:45:03;101613.97;;;5.64;100.00
53262;BME280;39658;51.090;-1.786;2023-12-20T03:47:32;101607.03;;;5.63;100.00
53262;BME280;39658;51.090;-1.786;2023-12-20T03:49:58;101608.13;;;5.55;100.00
53262;BME280;39658;51.090;-1.786;2023-12-20T03:52:25;101607.50;;;5.47;100.00
53262;BME280;39658;51.090;-1.786;2023-12-20T03:54:52;101600.22;;;5.57;100.00
53262;BME280;39658;51.090;-1.786;2023-12-20T03:57:18;101594.34;;;5.50;100.00
53262;BME280;39658;51.090;-1.786;2023-12-20T03:59:45;101590.69;;;5.54;100.00
53262;BME280;39658;51.090;-1.786;2023-12-20T04:02:12;101592.31;;;5.58;100.00
53262;BME280;39658;51.090;-1.786;2023-12-20T04:04:40;101593.03;;;5.64;100.00
53262;BME280;39658;51.090;-1.786;2023-12-20T04:07:07;101595.66;;;5.64;100.00
53262;BME280;39658;51.090;-1.786;2023-12-20T04:09:34;101584.09;;;5.71;100.00
53262;BME280;39658;51.090;-1.786;2023-12-20T04:12:00;101585.72;;;5.75;100.00
53262;BME280;39658;51.090;-1.786;2023-12-20T04:14:27;101592.69;;;5.74;100.00
53262;BME280;39658;51.090;-1.786;2023-12-20T04:16:54;101595.59;;;5.65;100.00
53262;BME280;39658;51.090;-1.786;2023-12-20T04:19:21;101603.41;;;5.67;100.00
53262;BME280;39658;51.090;-1.786;2023-12-20T04:21:49;101593.19;;;5.59;100.00
53262;BME280;39658;51.090;-1.786;2023-12-20T04:24:15;101577.38;;;5.62;100.00
53262;BME280;39658;51.090;-1.786;2023-12-20T04:26:42;101580.03;;;5.61;100.00
53262;BME280;39658;51.090;-1.786;2023-12-20T04:29:09;101581.66;;;5.65;100.00
53262;BME280;39658;51.090;-1.786;2023-12-20T04:31:36;101580.09;;;5.59;100.00
53262;BME280;39658;51.090;-1.786;2023-12-20T04:34:02;101572.34;;;5.56;100.00
53262;BME280;39658;51.090;-1.786;2023-12-20T04:36:29;101565.31;;;5.58;100.00
53262;BME280;39658;51.090;-1.786;2023-12-20T04:38:57;101563.69;;;5.54;100.00
53262;BME280;39658;51.090;-1.786;2023-12-20T04:41:25;101549.13;;;5.45;100.00
53262;BME280;39658;51.090;-1.786;2023-12-20T04:43:53;101556.09;;;5.46;100.00
53262;BME280;39658;51.090;-1.786;2023-12-20T04:46:19;101556.31;;;5.38;100.00
53262;BME280;39658;51.090;-1.786;2023-12-20T04:48:46;101553.84;;;5.34;100.00
53262;BME280;39658;51.090;-1.786;2023-12-20T04:51:13;101562.44;;;5.37;100.00
53262;BME280;39658;51.090;-1.786;2023-12-20T04:53:40;101559.44;;;5.50;100.00
53262;BME280;39658;51.090;-1.786;2023-12-20T04:56:08;101562.75;;;5.56;100.00
53262;BME280;39658;51.090;-1.786;2023-12-20T04:58:35;101563.59;;;5.57;100.00
53262;BME280;39658;51.090;-1.786;2023-12-20T05:01:01;101564.06;;;5.70;100.00
53262;BME280;39658;51.090;-1.786;2023-12-20T05:03:28;101571.72;;;5.76;100.00
53262;BME280;39658;51.090;-1.786;2023-12-20T05:05:55;101569.88;;;5.80;100.00
53262;BME280;39658;51.090;-1.786;2023-12-20T05:08:22;101572.25;;;5.87;100.00
53262;BME280;39658;51.090;-1.786;2023-12-20T05:10:48;101578.78;;;6.01;100.00
53262;BME280;39658;51.090;-1.786;2023-12-20T05:13:16;101572.34;;;6.11;100.00
53262;BME280;39658;51.090;-1.786;2023-12-20T05:15:43;101565.13;;;6.18;100.00
53262;BME280;39658;51.090;-1.786;2023-12-20T05:18:10;101570.28;;;6.21;100.00
53262;BME280;39658;51.090;-1.786;2023-12-20T05:20:36;101579.81;;;6.23;100.00
53262;BME280;39658;51.090;-1.786;2023-12-20T05:23:03;101576.09;;;6.29;100.00
53262;BME280;39658;51.090;-1.786;2023-12-20T05:25:30;101574.19;;;6.34;100.00
53262;BME280;39658;51.090;-1.786;2023-12-20T05:27:57;101575.78;;;6.38;100.00
53262;BME280;39658;51.090;-1.786;2023-12-20T05:30:25;101571.31;;;6.42;100.00
53262;BME280;39658;51.090;-1.786;2023-12-20T05:32:52;101563.28;;;6.46;100.00
53262;BME280;39658;51.090;-1.786;2023-12-20T05:35:18;101539.81;;;6.43;100.00
53262;BME280;39658;51.090;-1.786;2023-12-20T05:37:45;101539.81;;;6.43;100.00
53262;BME280;39658;51.090;-1.786;2023-12-20T05:40:12;101535.25;;;6.49;100.00
53262;BME280;39658;51.090;-1.786;2023-12-20T05:42:39;101532.38;;;6.56;100.00
53262;BME280;39658;51.090;-1.786;2023-12-20T05:45:06;101530.66;;;6.55;100.00
53262;BME280;39658;51.090;-1.786;2023-12-20T05:47:34;101522.41;;;6.66;100.00
53262;BME280;39658;51.090;-1.786;2023-12-20T05:50:01;101520.59;;;6.68;100.00
53262;BME280;39658;51.090;-1.786;2023-12-20T05:52:28;101510.41;;;6.60;100.00
53262;BME280;39658;51.090;-1.786;2023-12-20T05:54:54;101506.50;;;6.47;100.00
53262;BME280;39658;51.090;-1.786;2023-12-20T05:57:23;101517.25;;;6.39;100.00
53262;BME280;39658;51.090;-1.786;2023-12-20T05:59:49;101519.19;;;6.34;100.00
53262;BME280;39658;51.090;-1.786;2023-12-20T06:02:16;101515.63;;;6.35;100.00
53262;BME280;39658;51.090;-1.786;2023-12-20T06:04:44;101513.19;;;6.31;100.00
53262;BME280;39658;51.090;-1.786;2023-12-20T06:07:11;101512.72;;;6.19;100.00
53262;BME280;39658;51.090;-1.786;2023-12-20T06:09:38;101512.66;;;6.21;100.00
53262;BME280;39658;51.090;-1.786;2023-12-20T06:12:06;101515.38;;;6.18;100.00
53262;BME280;39658;51.090;-1.786;2023-12-20T06:14:33;101510.84;;;6.23;100.00
53262;BME280;39658;51.090;-1.786;2023-12-20T06:17:00;101500.34;;;6.23;100.00
53262;BME280;39658;51.090;-1.786;2023-12-20T06:19:27;101505.44;;;6.27;100.00
53262;BME280;39658;51.090;-1.786;2023-12-20T06:21:55;101505.22;;;6.34;100.00
53262;BME280;39658;51.090;-1.786;2023-12-20T06:24:22;101506.25;;;6.29;100.00
53262;BME280;39658;51.090;-1.786;2023-12-20T06:26:53;101520.16;;;6.32;100.00
53262;BME280;39658;51.090;-1.786;2023-12-20T06:29:19;101529.06;;;6.26;100.00
53262;BME280;39658;51.090;-1.786;2023-12-20T06:31:46;101529.22;;;6.46;100.00
53262;BME280;39658;51.090;-1.786;2023-12-20T06:34:13;101536.66;;;6.59;100.00
53262;BME280;39658;51.090;-1.786;2023-12-20T06:36:40;101544.91;;;6.48;100.00
53262;BME280;39658;51.090;-1.786;2023-12-20T06:39:08;101550.97;;;6.49;100.00
53262;BME280;39658;51.090;-1.786;2023-12-20T06:41:34;101541.56;;;6.43;100.00
53262;BME280;39658;51.090;-1.786;2023-12-20T06:44:01;101544.50;;;6.34;100.00
53262;BME280;39658;51.090;-1.786;2023-12-20T06:46:28;101543.66;;;6.33;100.00
53262;BME280;39658;51.090;-1.786;2023-12-20T06:48:54;101533.81;;;6.40;100.00
53262;BME280;39658;51.090;-1.786;2023-12-20T06:51:21;101524.06;;;6.45;100.00
53262;BME280;39658;51.090;-1.786;2023-12-20T06:53:50;101517.38;;;6.36;100.00
53262;BME280;39658;51.090;-1.786;2023-12-20T06:56:18;101509.44;;;6.38;100.00
53262;BME280;39658;51.090;-1.786;2023-12-20T06:58:45;101519.59;;;6.47;100.00
53262;BME280;39658;51.090;-1.786;2023-12-20T07:01:12;101509.06;;;6.49;100.00
53262;BME280;39658;51.090;-1.786;2023-12-20T07:03:39;101514.53;;;6.42;100.00
53262;BME280;39658;51.090;-1.786;2023-12-20T07:06:07;101506.84;;;6.38;100.00
53262;BME280;39658;51.090;-1.786;2023-12-20T07:08:33;101510.94;;;6.45;100.00
53262;BME280;39658;51.090;-1.786;2023-12-20T07:11:00;101514.13;;;6.53;100.00
53262;BME280;39658;51.090;-1.786;2023-12-20T07:13:29;101504.81;;;6.70;100.00
53262;BME280;39658;51.090;-1.786;2023-12-20T07:15:56;101490.94;;;6.66;100.00
53262;BME280;39658;51.090;-1.786;2023-12-20T07:18:23;101473.25;;;6.73;100.00
53262;BME280;39658;51.090;-1.786;2023-12-20T07:20:50;101476.03;;;6.68;100.00
53262;BME280;39658;51.090;-1.786;2023-12-20T07:23:16;101464.50;;;6.72;100.00
53262;BME280;39658;51.090;-1.786;2023-12-20T07:25:45;101459.94;;;6.77;100.00
53262;BME280;39658;51.090;-1.786;2023-12-20T07:28:11;101469.13;;;6.65;100.00
53262;BME280;39658;51.090;-1.786;2023-12-20T07:30:39;101457.66;;;6.70;100.00
53262;BME280;39658;51.090;-1.786;2023-12-20T07:33:06;101447.88;;;6.73;100.00
53262;BME280;39658;51.090;-1.786;2023-12-20T07:35:34;101453.97;;;6.74;100.00
53262;BME280;39658;51.090;-1.786;2023-12-20T07:38:01;101465.44;;;6.71;100.00
53262;BME280;39658;51.090;-1.786;2023-12-20T07:40:28;101453.19;;;6.72;100.00
53262;BME280;39658;51.090;-1.786;2023-12-20T07:42:54;101460.88;;;6.76;100.00
53262;BME280;39658;51.090;-1.786;2023-12-20T07:45:21;101464.09;;;6.83;100.00
53262;BME280;39658;51.090;-1.786;2023-12-20T07:47:49;101475.25;;;6.88;100.00
53262;BME280;39658;51.090;-1.786;2023-12-20T07:50:16;101482.34;;;6.86;100.00
53262;BME280;39658;51.090;-1.786;2023-12-20T07:52:43;101474.41;;;6.88;100.00
53262;BME280;39658;51.090;-1.786;2023-12-20T07:55:09;101469.34;;;6.83;100.00
53262;BME280;39658;51.090;-1.786;2023-12-20T07:57:36;101474.34;;;6.89;100.00
53262;BME280;39658;51.090;-1.786;2023-12-20T08:00:04;101478.75;;;6.89;100.00
53262;BME280;39658;51.090;-1.786;2023-12-20T08:02:31;101491.34;;;7.03;100.00
53262;BME280;39658;51.090;-1.786;2023-12-20T08:04:59;101483.88;;;7.14;100.00
53262;BME280;39658;51.090;-1.786;2023-12-20T08:07:26;101484.69;;;7.16;100.00
53262;BME280;39658;51.090;-1.786;2023-12-20T08:09:52;101490.72;;;7.18;100.00
53262;BME280;39658;51.090;-1.786;2023-12-20T08:12:20;101504.31;;;7.28;100.00
53262;BME280;39658;51.090;-1.786;2023-12-20T08:14:47;101508.66;;;7.29;100.00
53262;BME280;39658;51.090;-1.786;2023-12-20T08:17:13;101509.75;;;7.45;100.00
53262;BME280;39658;51.090;-1.786;2023-12-20T08:19:41;101508.06;;;7.44;100.00
53262;BME280;39658;51.090;-1.786;2023-12-20T08:22:09;101516.59;;;7.49;100.00
53262;BME280;39658;51.090;-1.786;2023-12-20T08:24:36;101518.16;;;7.53;100.00
53262;BME280;39658;51.090;-1.786;2023-12-20T08:27:03;101512.91;;;7.53;100.00
53262;BME280;39658;51.090;-1.786;2023-12-20T08:29:30;101521.34;;;7.62;100.00
53262;BME280;39658;51.090;-1.786;2023-12-20T08:31:57;101520.09;;;7.70;100.00
53262;BME280;39658;51.090;-1.786;2023-12-20T08:34:24;101515.84;;;7.68;100.00
53262;BME280;39658;51.090;-1.786;2023-12-20T08:36:50;101514.84;;;7.70;100.00
53262;BME280;39658;51.090;-1.786;2023-12-20T08:39:19;101516.06;;;7.84;100.00
53262;BME280;39658;51.090;-1.786;2023-12-20T08:41:46;101517.72;;;7.86;100.00
53262;BME280;39658;51.090;-1.786;2023-12-20T08:44:12;101529.13;;;7.85;100.00
53262;BME280;39658;51.090;-1.786;2023-12-20T08:46:39;101524.53;;;7.90;100.00
53262;BME280;39658;51.090;-1.786;2023-12-20T08:49:06;101519.97;;;7.73;100.00
53262;BME280;39658;51.090;-1.786;2023-12-20T08:51:34;101529.81;;;7.68;100.00
53262;BME280;39658;51.090;-1.786;2023-12-20T08:54:01;101524.88;;;7.61;100.00
53262;BME280;39658;51.090;-1.786;2023-12-20T08:56:30;101526.47;;;7.65;100.00
53262;BME280;39658;51.090;-1.786;2023-12-20T08:58:57;101536.97;;;7.65;100.00
53262;BME280;39658;51.090;-1.786;2023-12-20T09:01:23;101543.97;;;7.64;100.00
53262;BME280;39658;51.090;-1.786;2023-12-20T09:03:50;101550.63;;;7.73;100.00
53262;BME280;39658;51.090;-1.786;2023-12-20T09:06:17;101545.84;;;7.83;100.00
53262;BME280;39658;51.090;-1.786;2023-12-20T09:08:42;101547.31;;;7.90;100.00
53262;BME280;39658;51.090;-1.786;2023-12-20T09:11:09;101551.53;;;7.94;100.00
53262;BME280;39658;51.090;-1.786;2023-12-20T09:13:37;101554.75;;;8.01;100.00
53262;BME280;39658;51.090;-1.786;2023-12-20T09:16:04;101554.09;;;8.16;100.00
53262;BME280;39658;51.090;-1.786;2023-12-20T09:18:31;101559.66;;;8.29;100.00
53262;BME280;39658;51.090;-1.786;2023-12-20T09:20:58;101565.38;;;8.39;100.00
53262;BME280;39658;51.090;-1.786;2023-12-20T09:23:25;101569.53;;;8.44;100.00
53262;BME280;39658;51.090;-1.786;2023-12-20T09:25:52;101587.97;;;8.63;100.00
53262;BME280;39658;51.090;-1.786;2023-12-20T09:28:19;101602.78;;;8.66;100.00
53262;BME280;39658;51.090;-1.786;2023-12-20T09:30:47;101597.59;;;8.65;100.00
53262;BME280;39658;51.090;-1.786;2023-12-20T09:33:14;101595.47;;;8.73;100.00
53262;BME280;39658;51.090;-1.786;2023-12-20T09:35:41;101602.66;;;8.69;100.00
53262;BME280;39658;51.090;-1.786;2023-12-20T09:38:09;101612.59;;;8.62;100.00
53262;BME280;39658;51.090;-1.786;2023-12-20T09:40:36;101603.50;;;8.49;100.00
53262;BME280;39658;51.090;-1.786;2023-12-20T09:43:11;101594.53;;;8.55;100.00
53262;BME280;39658;51.090;-1.786;2023-12-20T09:45:40;101577.75;;;8.57;100.00
53262;BME280;39658;51.090;-1.786;2023-12-20T09:48:10;101574.78;;;8.65;100.00
53262;BME280;39658;51.090;-1.786;2023-12-20T09:50:39;101583.25;;;8.72;100.00
53262;BME280;39658;51.090;-1.786;2023-12-20T09:53:08;101592.56;;;8.79;100.00
53262;BME280;39658;51.090;-1.786;2023-12-20T09:55:36;101597.47;;;8.87;100.00
53262;BME280;39658;51.090;-1.786;2023-12-20T09:58:04;101605.03;;;8.94;100.00
53262;BME280;39658;51.090;-1.786;2023-12-20T10:00:32;101615.97;;;9.04;100.00
53262;BME280;39658;51.090;-1.786;2023-12-20T10:03:00;101628.84;;;9.10;100.00
53262;BME280;39658;51.090;-1.786;2023-12-20T10:05:29;101656.81;;;9.13;100.00
53262;BME280;39658;51.090;-1.786;2023-12-20T10:07:56;101669.25;;;9.09;100.00
53262;BME280;39658;51.090;-1.786;2023-12-20T10:10:23;101676.06;;;9.13;100.00
53262;BME280;39658;51.090;-1.786;2023-12-20T10:13:04;101685.97;;;9.27;100.00
53262;BME280;39658;51.090;-1.786;2023-12-20T10:15:32;101698.31;;;9.27;100.00
53262;BME280;39658;51.090;-1.786;2023-12-20T10:17:59;101713.72;;;9.15;100.00
53262;BME280;39658;51.090;-1.786;2023-12-20T10:20:28;101729.03;;;9.06;100.00
53262;BME280;39658;51.090;-1.786;2023-12-20T10:22:55;101727.41;;;9.03;100.00
53262;BME280;39658;51.090;-1.786;2023-12-20T10:25:23;101723.63;;;9.09;100.00
53262;BME280;39658;51.090;-1.786;2023-12-20T10:27:50;101722.16;;;9.03;100.00
53262;BME280;39658;51.090;-1.786;2023-12-20T10:30:34;101717.03;;;9.00;100.00
53262;BME280;39658;51.090;-1.786;2023-12-20T10:33:01;101709.63;;;9.08;100.00
53262;BME280;39658;51.090;-1.786;2023-12-20T10:35:29;101698.28;;;9.08;100.00
53262;BME280;39658;51.090;-1.786;2023-12-20T10:37:56;101679.94;;;9.06;100.00
53262;BME280;39658;51.090;-1.786;2023-12-20T10:40:24;101686.16;;;9.04;100.00
53262;BME280;39658;51.090;-1.786;2023-12-20T10:42:52;101676.78;;;8.98;100.00
53262;BME280;39658;51.090;-1.786;2023-12-20T10:45:19;101675.72;;;9.02;100.00
53262;BME280;39658;51.090;-1.786;2023-12-20T10:47:46;101651.19;;;9.02;100.00
53262;BME280;39658;51.090;-1.786;2023-12-20T10:50:13;101652.69;;;9.07;100.00
53262;BME280;39658;51.090;-1.786;2023-12-20T10:52:42;101658.69;;;9.11;100.00
53262;BME280;39658;51.090;-1.786;2023-12-20T10:55:11;101655.28;;;9.28;100.00
53262;BME280;39658;51.090;-1.786;2023-12-20T10:57:38;101650.94;;;9.27;100.00
53262;BME280;39658;51.090;-1.786;2023-12-20T11:00:08;101660.25;;;9.34;100.00
53262;BME280;39658;51.090;-1.786;2023-12-20T11:02:40;101672.50;;;9.54;100.00
53262;BME280;39658;51.090;-1.786;2023-12-20T11:05:16;101674.69;;;9.44;100.00
53262;BME280;39658;51.090;-1.786;2023-12-20T11:07:52;101666.00;;;9.61;100.00
53262;BME280;39658;51.090;-1.786;2023-12-20T11:10:25;101678.47;;;9.58;100.00
53262;BME280;39658;51.090;-1.786;2023-12-20T11:12:54;101672.88;;;10.02;100.00
53262;BME280;39658;51.090;-1.786;2023-12-20T11:15:24;101677.97;;;10.24;100.00
53262;BME280;39658;51.090;-1.786;2023-12-20T11:17:54;101694.09;;;9.99;100.00
53262;BME280;39658;51.090;-1.786;2023-12-20T11:20:23;101675.13;;;10.10;100.00
53262;BME280;39658;51.090;-1.786;2023-12-20T11:22:54;101670.16;;;10.03;100.00
53262;BME280;39658;51.090;-1.786;2023-12-20T11:25:21;101672.25;;;10.51;100.00
53262;BME280;39658;51.090;-1.786;2023-12-20T11:28:08;101657.25;;;10.16;100.00
53262;BME280;39658;51.090;-1.786;2023-12-20T11:30:41;101651.84;;;9.83;100.00
53262;BME280;39658;51.090;-1.786;2023-12-20T11:33:08;101637.63;;;9.68;100.00
53262;BME280;39658;51.090;-1.786;2023-12-20T11:35:35;101633.44;;;9.64;100.00
53262;BME280;39658;51.090;-1.786;2023-12-20T11:38:03;101625.38;;;9.67;100.00
53262;BME280;39658;51.090;-1.786;2023-12-20T11:40:33;101627.47;;;9.60;100.00
53262;BME280;39658;51.090;-1.786;2023-12-20T11:43:02;101635.66;;;9.54;100.00
53262;BME280;39658;51.090;-1.786;2023-12-20T11:45:29;101598.22;;;9.47;100.00
53262;BME280;39658;51.090;-1.786;2023-12-20T11:47:56;101578.75;;;9.32;100.00
53262;BME280;39658;51.090;-1.786;2023-12-20T11:50:24;101556.34;;;9.24;100.00
53262;BME280;39658;51.090;-1.786;2023-12-20T11:52:52;101524.06;;;9.20;100.00
53262;BME280;39658;51.090;-1.786;2023-12-20T11:55:21;101496.75;;;9.23;100.00
53262;BME280;39658;51.090;-1.786;2023-12-20T11:57:49;101472.38;;;9.37;100.00
53262;BME280;39658;51.090;-1.786;2023-12-20T12:00:17;101465.59;;;9.32;100.00
53262;BME280;39658;51.090;-1.786;2023-12-20T12:02:55;101456.06;;;9.30;100.00
53262;BME280;39658;51.090;-1.786;2023-12-20T12:05:23;101451.69;;;9.48;100.00
53262;BME280;39658;51.090;-1.786;2023-12-20T12:07:49;101457.25;;;9.42;100.00
53262;BME280;39658;51.090;-1.786;2023-12-20T12:10:16;101454.38;;;9.46;100.00
53262;BME280;39658;51.090;-1.786;2023-12-20T12:12:44;101453.81;;;9.40;100.00
53262;BME280;39658;51.090;-1.786;2023-12-20T12:15:11;101445.06;;;9.39;100.00
53262;BME280;39658;51.090;-1.786;2023-12-20T12:17:38;101449.28;;;9.43;100.00
53262;BME280;39658;51.090;-1.786;2023-12-20T12:20:06;101453.50;;;9.46;100.00
53262;BME280;39658;51.090;-1.786;2023-12-20T12:22:35;101440.81;;;9.37;100.00
53262;BME280;39658;51.090;-1.786;2023-12-20T12:25:10;101410.09;;;9.37;100.00
53262;BME280;39658;51.090;-1.786;2023-12-20T12:27:39;101405.00;;;9.34;100.00
53262;BME280;39658;51.090;-1.786;2023-12-20T12:30:09;101380.66;;;9.29;100.00
53262;BME280;39658;51.090;-1.786;2023-12-20T12:32:38;101358.84;;;9.27;100.00
53262;BME280;39658;51.090;-1.786;2023-12-20T12:35:06;101364.25;;;9.24;100.00
53262;BME280;39658;51.090;-1.786;2023-12-20T12:37:34;101346.00;;;9.21;100.00
53262;BME280;39658;51.090;-1.786;2023-12-20T12:40:03;101343.38;;;9.21;100.00
53262;BME280;39658;51.090;-1.786;2023-12-20T12:42:30;101334.00;;;9.15;100.00